createdAt,value
2023-05-17T00:02:26.929Z,7.10
2023-05-17T00:04:54.758Z,7.10
2023-05-17T00:07:24.973Z,7.00
2023-05-17T00:09:52.596Z,6.90
2023-05-17T00:12:20.327Z,6.90
2023-05-17T00:14:47.916Z,7.00
2023-05-17T00:17:15.883Z,7.10
2023-05-17T00:19:43.463Z,7.10
2023-05-17T00:22:11.069Z,7.10
2023-05-17T00:24:38.641Z,7.00
2023-05-17T00:27:06.213Z,7.00
2023-05-17T00:29:33.842Z,7.00
2023-05-17T00:32:01.430Z,7.10
2023-05-17T00:34:29.166Z,7.00
2023-05-17T00:36:56.780Z,7.00
2023-05-17T00:39:24.397Z,7.00
2023-05-17T00:41:52.026Z,7.00
2023-05-17T00:44:19.639Z,7.10
2023-05-17T00:46:47.140Z,7.10
2023-05-17T00:49:14.684Z,7.00
2023-05-17T00:51:42.552Z,7.10
2023-05-17T00:54:11.325Z,7.10
2023-05-17T00:56:39.977Z,7.10
2023-05-17T00:59:07.899Z,7.10
2023-05-17T01:01:37.948Z,7.10
2023-05-17T01:04:07.392Z,7.10
2023-05-17T01:06:36.422Z,7.20
2023-05-17T01:09:05.389Z,7.10
2023-05-17T01:11:53.400Z,7.10
2023-05-17T01:14:51.453Z,7.20
2023-05-17T01:17:36.410Z,7.10
2023-05-17T01:20:13.220Z,7.10
2023-05-17T01:23:22.656Z,7.10
2023-05-17T01:26:18.483Z,7.10
2023-05-17T01:28:49.666Z,7.10
2023-05-17T01:31:18.591Z,7.10
2023-05-17T01:33:46.825Z,7.10
2023-05-17T01:36:14.399Z,7.10
2023-05-17T01:38:42.484Z,7.10
2023-05-17T01:41:24.738Z,7.10
2023-05-17T01:44:02.711Z,7.10
2023-05-17T01:46:36.468Z,7.10
2023-05-17T01:49:30.098Z,7.10
2023-05-17T01:52:15.290Z,7.10
2023-05-17T01:54:54.656Z,7.10
2023-05-17T01:57:32.740Z,7.10
2023-05-17T02:00:02.399Z,7.10
2023-05-17T02:02:30.762Z,7.10
2023-05-17T02:04:58.875Z,7.10
2023-05-17T02:07:27.977Z,7.10
2023-05-17T02:09:56.685Z,7.10
2023-05-17T02:12:25.612Z,7.10
2023-05-17T02:14:53.650Z,7.10
2023-05-17T02:17:21.686Z,7.10
2023-05-17T02:19:50.031Z,7.10
2023-05-17T02:22:17.945Z,7.10
2023-05-17T02:24:46.947Z,7.10
2023-05-17T02:27:15.209Z,7.10
2023-05-17T02:29:43.344Z,7.10
2023-05-17T02:32:11.504Z,7.10
2023-05-17T02:34:42.052Z,7.10
2023-05-17T02:37:10.356Z,7.10
2023-05-17T02:39:44.364Z,7.10
2023-05-17T02:42:14.857Z,7.10
2023-05-17T02:44:42.983Z,7.10
2023-05-17T02:47:11.155Z,7.00
2023-05-17T02:49:39.110Z,7.10
2023-05-17T02:52:07.268Z,7.00
2023-05-17T02:54:35.521Z,7.10
2023-05-17T02:57:04.567Z,7.10
2023-05-17T02:59:32.338Z,7.00
2023-05-17T03:02:00.108Z,7.10
2023-05-17T03:04:29.040Z,7.00
2023-05-17T03:06:57.405Z,7.00
2023-05-17T03:09:26.129Z,7.00
2023-05-17T03:11:54.050Z,7.00
2023-05-17T03:14:27.982Z,7.00
2023-05-17T03:16:56.169Z,7.10
2023-05-17T03:19:25.067Z,7.00
2023-05-17T03:21:54.020Z,7.10
2023-05-17T03:24:24.758Z,7.00
2023-05-17T03:26:53.223Z,7.00
2023-05-17T03:29:25.555Z,7.00
2023-05-17T03:31:53.966Z,7.00
2023-05-17T03:34:22.008Z,7.00
2023-05-17T03:36:49.920Z,7.00
2023-05-17T03:39:18.196Z,7.00
2023-05-17T03:41:46.747Z,7.00
2023-05-17T03:44:15.915Z,7.00
2023-05-17T03:46:44.383Z,7.00
2023-05-17T03:49:12.398Z,7.00
2023-05-17T03:51:41.650Z,7.00
2023-05-17T03:54:09.487Z,7.00
2023-05-17T03:56:37.415Z,7.10
2023-05-17T03:59:05.121Z,7.10
2023-05-17T04:01:33.338Z,7.00
2023-05-17T04:04:04.207Z,7.10
2023-05-17T04:06:32.561Z,7.10
2023-05-17T04:09:00.624Z,7.10
2023-05-17T04:11:29.000Z,7.10
2023-05-17T04:13:57.687Z,7.20
2023-05-17T04:16:26.000Z,7.20
2023-05-17T04:18:55.521Z,7.20
2023-05-17T04:21:23.327Z,7.30
2023-05-17T04:23:52.001Z,7.30
2023-05-17T04:26:20.677Z,7.30
2023-05-17T04:28:48.878Z,7.30
2023-05-17T04:31:17.917Z,7.30
2023-05-17T04:33:47.192Z,7.40
2023-05-17T04:36:17.059Z,7.40
2023-05-17T04:38:48.952Z,7.30
2023-05-17T04:41:20.800Z,7.40
2023-05-17T04:43:49.434Z,7.40
2023-05-17T04:46:24.184Z,7.40
2023-05-17T04:48:52.069Z,7.40
2023-05-17T04:51:19.974Z,7.40
2023-05-17T04:53:48.385Z,7.40
2023-05-17T04:56:19.176Z,7.40
2023-05-17T04:58:47.396Z,7.50
2023-05-17T05:01:15.751Z,7.50
2023-05-17T05:03:43.759Z,7.50
2023-05-17T05:06:13.021Z,7.60
2023-05-17T05:08:42.446Z,7.60
2023-05-17T05:11:12.964Z,7.60
2023-05-17T05:13:42.444Z,7.60
2023-05-17T05:16:10.547Z,7.60
2023-05-17T05:18:39.041Z,7.70
2023-05-17T05:21:07.052Z,7.70
2023-05-17T05:23:35.008Z,7.70
2023-05-17T05:26:04.386Z,7.80
2023-05-17T05:28:33.193Z,7.80
2023-05-17T05:31:01.953Z,7.80
2023-05-17T05:33:36.572Z,7.70
2023-05-17T05:36:05.080Z,7.80
2023-05-17T05:38:33.101Z,7.70
2023-05-17T05:41:01.538Z,7.70
2023-05-17T05:43:30.478Z,7.80
2023-05-17T05:45:58.514Z,7.80
2023-05-17T05:48:26.459Z,7.80
2023-05-17T05:50:54.155Z,7.80
2023-05-17T05:53:22.338Z,7.80
2023-05-17T05:55:54.779Z,7.90
2023-05-17T05:58:22.718Z,7.90
2023-05-17T06:00:51.857Z,8.00
2023-05-17T06:03:19.816Z,8.10
2023-05-17T06:05:48.114Z,8.40
2023-05-17T06:08:15.944Z,8.60
2023-05-17T06:10:46.764Z,8.80
2023-05-17T06:13:15.444Z,8.80
2023-05-17T06:15:44.077Z,8.90
2023-05-17T06:18:12.814Z,9.10
2023-05-17T06:20:43.359Z,9.10
2023-05-17T06:23:11.487Z,9.20
2023-05-17T06:25:40.547Z,9.20
2023-05-17T06:28:09.418Z,9.30
2023-05-17T06:30:37.503Z,9.30
2023-05-17T06:33:05.850Z,9.40
2023-05-17T06:35:47.438Z,9.40
2023-05-17T06:38:23.440Z,9.50
2023-05-17T06:40:55.723Z,9.40
2023-05-17T06:43:24.737Z,9.50
2023-05-17T06:45:53.239Z,9.50
2023-05-17T06:48:21.366Z,9.50
2023-05-17T06:50:49.532Z,9.50
2023-05-17T06:53:17.500Z,9.60
2023-05-17T06:55:45.598Z,9.60
2023-05-17T06:58:13.430Z,9.50
2023-05-17T07:00:41.210Z,9.40
2023-05-17T07:03:09.342Z,9.40
2023-05-17T07:05:37.190Z,9.40
2023-05-17T07:08:05.075Z,9.30
2023-05-17T07:10:32.678Z,9.40
2023-05-17T07:13:00.542Z,9.30
2023-05-17T07:15:28.418Z,9.30
2023-05-17T07:17:56.457Z,9.20
2023-05-17T07:20:24.129Z,9.10
2023-05-17T07:22:51.807Z,9.00
2023-05-17T07:25:21.119Z,9.00
2023-05-17T07:27:48.672Z,9.00
2023-05-17T07:30:16.288Z,8.90
2023-05-17T07:32:43.866Z,8.80
2023-05-17T07:35:11.597Z,8.80
2023-05-17T07:37:39.150Z,8.80
2023-05-17T07:40:07.678Z,8.80
2023-05-17T07:42:35.393Z,8.70
2023-05-17T07:45:03.011Z,8.70
2023-05-17T07:47:31.317Z,8.70
2023-05-17T07:49:59.125Z,8.70
2023-05-17T07:52:26.766Z,8.70
2023-05-17T07:54:54.534Z,8.70
2023-05-17T07:57:22.720Z,8.60
2023-05-17T07:59:50.906Z,8.60
2023-05-17T08:02:19.350Z,8.60
2023-05-17T08:04:47.134Z,8.60
2023-05-17T08:07:15.094Z,8.60
2023-05-17T08:09:45.582Z,8.60
2023-05-17T08:12:13.405Z,8.70
2023-05-17T08:14:41.222Z,8.70
2023-05-17T08:17:09.143Z,8.70
2023-05-17T08:19:37.267Z,8.80
2023-05-17T08:22:05.118Z,8.80
2023-05-17T08:24:32.742Z,8.80
2023-05-17T08:27:00.342Z,8.90
2023-05-17T08:29:28.005Z,9.00
2023-05-17T08:31:56.116Z,9.10
2023-05-17T08:34:23.789Z,9.10
2023-05-17T08:36:51.798Z,9.30
2023-05-17T08:39:21.170Z,9.40
2023-05-17T08:41:49.125Z,9.40
2023-05-17T08:44:17.330Z,9.40
2023-05-17T08:46:52.427Z,9.40
2023-05-17T08:49:25.913Z,9.50
2023-05-17T08:51:59.595Z,9.60
2023-05-17T08:54:27.739Z,9.70
2023-05-17T08:57:00.205Z,9.90
2023-05-17T08:59:33.877Z,10.00
2023-05-17T09:02:02.155Z,10.00
2023-05-17T09:04:31.371Z,10.10
2023-05-17T09:06:59.223Z,10.00
2023-05-17T09:09:27.490Z,9.90
2023-05-17T09:11:55.298Z,10.00
2023-05-17T09:14:22.950Z,10.10
2023-05-17T09:16:57.668Z,10.10
2023-05-17T09:19:25.296Z,10.10
2023-05-17T09:21:54.391Z,10.10
2023-05-17T09:24:30.293Z,10.10
2023-05-17T09:27:03.344Z,10.10
2023-05-17T09:29:35.790Z,10.20
2023-05-17T09:32:17.487Z,10.20
2023-05-17T09:34:47.119Z,10.30
2023-05-17T09:37:21.057Z,10.40
2023-05-17T09:39:48.831Z,10.40
2023-05-17T09:42:17.902Z,10.60
2023-05-17T09:45:00.153Z,10.60
2023-05-17T09:47:29.921Z,10.70
2023-05-17T09:50:00.574Z,10.70
2023-05-17T09:52:32.026Z,10.90
2023-05-17T09:55:00.934Z,11.20
2023-05-17T09:57:37.016Z,11.30
2023-05-17T10:00:09.856Z,11.30
2023-05-17T10:02:38.553Z,11.50
2023-05-17T10:05:10.946Z,11.40
2023-05-17T10:07:39.006Z,11.20
2023-05-17T10:10:07.347Z,11.10
2023-05-17T10:12:36.260Z,11.10
2023-05-17T10:15:04.586Z,11.20
2023-05-17T10:17:33.547Z,11.10
2023-05-17T10:20:02.215Z,11.20
2023-05-17T10:22:30.766Z,11.30
2023-05-17T10:24:58.788Z,11.40
2023-05-17T10:27:26.885Z,11.40
2023-05-17T10:29:55.562Z,11.40
2023-05-17T10:32:27.370Z,11.10
2023-05-17T10:35:09.300Z,11.10
2023-05-17T10:37:40.532Z,11.10
2023-05-17T10:40:17.636Z,11.10
2023-05-17T10:42:52.335Z,11.20
2023-05-17T10:45:25.614Z,11.20
2023-05-17T10:47:57.662Z,11.40
2023-05-17T10:50:27.898Z,11.50
2023-05-17T10:52:59.515Z,11.60
2023-05-17T10:55:38.912Z,11.50
2023-05-17T10:58:22.570Z,11.70
2023-05-17T11:00:55.638Z,11.80
2023-05-17T11:03:34.060Z,11.80
2023-05-17T11:06:22.004Z,11.70
2023-05-17T11:09:21.006Z,11.80
2023-05-17T11:12:09.117Z,11.90
2023-05-17T11:14:46.014Z,11.70
2023-05-17T11:17:21.709Z,12.00
2023-05-17T11:19:55.548Z,12.10
2023-05-17T11:22:27.861Z,12.00
2023-05-17T11:24:58.001Z,11.50
2023-05-17T11:27:29.687Z,11.70
2023-05-17T11:29:58.876Z,11.60
2023-05-17T11:32:32.188Z,11.70
2023-05-17T11:35:02.998Z,11.30
2023-05-17T11:37:32.725Z,11.70
2023-05-17T11:40:08.837Z,11.70
2023-05-17T11:42:38.376Z,11.90
2023-05-17T11:45:07.483Z,11.80
2023-05-17T11:47:40.066Z,12.20
2023-05-17T11:50:08.312Z,12.20
2023-05-17T11:52:36.486Z,12.10
2023-05-17T11:55:05.338Z,12.00
2023-05-17T11:57:33.256Z,11.90
2023-05-17T12:00:02.262Z,12.00
2023-05-17T12:02:40.297Z,12.30
2023-05-17T12:05:09.396Z,12.10
2023-05-17T12:07:37.605Z,12.00
2023-05-17T12:10:06.695Z,11.50
2023-05-17T12:12:34.849Z,11.60
2023-05-17T12:15:02.612Z,11.70
2023-05-17T12:17:38.531Z,11.80
2023-05-17T12:20:10.383Z,11.70
2023-05-17T12:22:56.945Z,11.80
2023-05-17T12:25:25.553Z,11.90
2023-05-17T12:27:53.730Z,11.80
2023-05-17T12:30:21.792Z,11.90
2023-05-17T12:32:49.661Z,11.70
2023-05-17T12:35:17.585Z,11.70
2023-05-17T12:37:45.631Z,11.50
2023-05-17T12:40:13.515Z,11.60
2023-05-17T12:42:43.872Z,11.60
2023-05-17T12:45:13.121Z,11.60
2023-05-17T12:47:41.096Z,11.40
2023-05-17T12:50:09.197Z,11.30
2023-05-17T12:52:41.196Z,11.40
2023-05-17T12:55:13.527Z,11.30
2023-05-17T12:57:52.561Z,11.20
2023-05-17T13:00:22.916Z,11.20
2023-05-17T13:02:50.695Z,11.20
2023-05-17T13:05:21.480Z,11.00
2023-05-17T13:07:49.348Z,10.90
2023-05-17T13:10:26.214Z,10.90
2023-05-17T13:12:57.914Z,10.70
2023-05-17T13:15:33.533Z,10.70
2023-05-17T13:18:13.000Z,10.70
2023-05-17T13:20:41.049Z,10.80
2023-05-17T13:23:09.638Z,10.80
2023-05-17T13:25:37.317Z,10.70
2023-05-17T13:28:05.333Z,10.60
2023-05-17T13:30:52.706Z,10.20
2023-05-17T13:33:45.290Z,10.00
2023-05-17T13:36:13.276Z,10.00
2023-05-17T13:38:41.138Z,10.10
2023-05-17T13:41:10.698Z,10.20
2023-05-17T13:43:38.304Z,10.10
2023-05-17T13:46:06.117Z,10.00
2023-05-17T13:48:33.859Z,9.80
2023-05-17T13:51:02.211Z,9.80
2023-05-17T13:53:30.055Z,10.00
2023-05-17T13:55:57.665Z,9.90
2023-05-17T13:58:25.504Z,9.90
2023-05-17T14:00:53.409Z,9.90
2023-05-17T14:03:21.544Z,9.80
2023-05-17T14:05:51.643Z,9.90
2023-05-17T14:08:20.285Z,9.60
2023-05-17T14:10:48.361Z,9.70
2023-05-17T14:13:16.014Z,9.60
2023-05-17T14:15:43.636Z,9.50
2023-05-17T14:18:11.374Z,9.50
2023-05-17T14:20:39.111Z,9.50
2023-05-17T14:23:06.959Z,9.40
2023-05-17T14:25:34.717Z,9.40
2023-05-17T14:28:02.365Z,9.30
2023-05-17T14:30:30.186Z,9.20
2023-05-17T14:32:59.254Z,9.10
2023-05-17T14:35:28.190Z,8.90
2023-05-17T14:37:56.572Z,8.90
2023-05-17T14:40:24.246Z,8.90
2023-05-17T14:42:52.086Z,8.90
2023-05-17T14:45:19.831Z,8.70
2023-05-17T14:47:47.509Z,8.60
2023-05-17T14:50:16.770Z,8.60
2023-05-17T14:52:44.671Z,8.50
2023-05-17T14:55:12.377Z,8.30
2023-05-17T14:57:40.308Z,8.20
2023-05-17T15:00:10.551Z,8.00
2023-05-17T15:02:38.933Z,8.00
2023-05-17T15:05:07.154Z,8.10
2023-05-17T15:07:34.832Z,8.20
2023-05-17T15:10:04.295Z,8.20
2023-05-17T15:12:32.448Z,8.20
2023-05-17T15:15:00.322Z,8.10
2023-05-17T15:17:28.034Z,8.10
2023-05-17T15:19:55.702Z,8.10
2023-05-17T15:22:24.240Z,8.00
2023-05-17T15:24:54.295Z,8.00
2023-05-17T15:27:21.898Z,8.00
2023-05-17T15:29:49.497Z,8.00
2023-05-17T15:32:17.225Z,8.20
2023-05-17T15:34:45.489Z,8.10
2023-05-17T15:37:13.209Z,8.10
2023-05-17T15:39:47.770Z,7.90
2023-05-17T15:42:16.934Z,7.80
2023-05-17T15:44:44.630Z,7.80
2023-05-17T15:47:12.336Z,7.70
2023-05-17T15:49:40.920Z,7.70
2023-05-17T15:52:09.333Z,7.80
2023-05-17T15:54:37.020Z,7.80
2023-05-17T15:57:04.999Z,7.70
2023-05-17T15:59:32.926Z,7.70
2023-05-17T16:02:00.536Z,7.70
2023-05-17T16:04:31.772Z,7.70
2023-05-17T16:06:59.647Z,7.60
2023-05-17T16:09:27.517Z,7.60
2023-05-17T16:11:55.258Z,7.60
2023-05-17T16:14:23.213Z,7.60
2023-05-17T16:16:52.478Z,7.70
2023-05-17T16:19:24.450Z,7.70
2023-05-17T16:21:55.387Z,7.60
2023-05-17T16:24:23.710Z,7.60
2023-05-17T16:26:52.534Z,7.60
2023-05-17T16:29:22.945Z,7.60
2023-05-17T16:31:51.960Z,7.70
2023-05-17T16:34:19.665Z,7.50
2023-05-17T16:36:52.693Z,7.50
2023-05-17T16:39:33.775Z,7.60
2023-05-17T16:42:04.497Z,7.50
2023-05-17T16:44:32.908Z,7.40
2023-05-17T16:47:01.309Z,7.40
2023-05-17T16:49:30.544Z,7.50
2023-05-17T16:51:58.200Z,7.40
2023-05-17T16:54:28.204Z,7.40
2023-05-17T16:56:56.480Z,7.40
2023-05-17T16:59:24.173Z,7.30
2023-05-17T17:01:52.878Z,7.40
2023-05-17T17:04:20.634Z,7.40
2023-05-17T17:06:48.311Z,7.40
2023-05-17T17:09:16.069Z,7.40
2023-05-17T17:11:43.869Z,7.50
2023-05-17T17:14:12.354Z,7.50
2023-05-17T17:16:40.711Z,7.60
2023-05-17T17:19:09.545Z,7.60
2023-05-17T17:21:37.287Z,7.60
2023-05-17T17:24:06.347Z,7.70
2023-05-17T17:26:49.992Z,7.70
2023-05-17T17:29:17.681Z,7.80
2023-05-17T17:31:46.335Z,7.90
2023-05-17T17:34:13.943Z,7.80
2023-05-17T17:36:41.820Z,7.70
2023-05-17T17:39:10.358Z,7.80
2023-05-17T17:41:37.961Z,7.90
2023-05-17T17:44:05.858Z,7.90
2023-05-17T17:46:33.665Z,7.80
2023-05-17T17:49:01.395Z,7.80
2023-05-17T17:51:29.234Z,7.70
2023-05-17T17:53:56.853Z,7.50
2023-05-17T17:56:25.818Z,7.40
2023-05-17T17:58:56.456Z,7.50
2023-05-17T18:01:24.792Z,7.40
2023-05-17T18:03:53.164Z,7.20
2023-05-17T18:06:21.434Z,7.30
2023-05-17T18:08:49.987Z,7.30
2023-05-17T18:11:17.705Z,7.20
2023-05-17T18:13:46.836Z,7.20
2023-05-17T18:16:14.671Z,7.20
2023-05-17T18:18:42.484Z,7.20
2023-05-17T18:21:10.668Z,7.10
2023-05-17T18:23:38.517Z,7.10
2023-05-17T18:26:06.347Z,7.00
2023-05-17T18:28:42.534Z,6.90
2023-05-17T18:31:11.409Z,7.00
2023-05-17T18:33:39.220Z,6.90
2023-05-17T18:36:07.370Z,6.90
2023-05-17T18:38:35.627Z,6.90
2023-05-17T18:41:03.485Z,6.90
2023-05-17T18:43:31.680Z,6.90
2023-05-17T18:45:59.371Z,6.80
2023-05-17T18:48:27.865Z,6.80
2023-05-17T18:50:57.449Z,6.80
2023-05-17T18:53:25.392Z,6.80
2023-05-17T18:55:53.011Z,6.80
2023-05-17T18:58:20.665Z,6.90
2023-05-17T19:00:48.683Z,6.70
2023-05-17T19:03:16.298Z,6.60
2023-05-17T19:05:50.493Z,6.60
2023-05-17T19:08:18.065Z,6.60
2023-05-17T19:10:46.033Z,6.70
2023-05-17T19:13:13.830Z,6.70
2023-05-17T19:15:41.830Z,6.70
2023-05-17T19:18:09.603Z,6.70
2023-05-17T19:20:37.518Z,6.60
2023-05-17T19:23:06.050Z,6.60
2023-05-17T19:25:33.866Z,6.60
2023-05-17T19:28:02.316Z,6.60
2023-05-17T19:30:32.715Z,6.70
2023-05-17T19:33:01.807Z,6.70
2023-05-17T19:35:29.542Z,6.70
2023-05-17T19:37:57.259Z,6.60
2023-05-17T19:40:25.125Z,6.60
2023-05-17T19:42:52.837Z,6.60
2023-05-17T19:45:20.746Z,6.60
2023-05-17T19:47:48.370Z,6.60
2023-05-17T19:50:16.875Z,6.50
2023-05-17T19:52:44.815Z,6.60
2023-05-17T19:55:15.998Z,6.60
2023-05-17T19:57:43.850Z,6.50
2023-05-17T20:00:11.808Z,6.50
2023-05-17T20:02:44.015Z,6.50
2023-05-17T20:05:11.942Z,6.50
2023-05-17T20:07:39.913Z,6.50
2023-05-17T20:10:07.740Z,6.40
2023-05-17T20:12:35.530Z,6.40
2023-05-17T20:15:03.825Z,6.50
2023-05-17T20:17:32.321Z,6.50
2023-05-17T20:19:59.944Z,6.40
2023-05-17T20:22:28.140Z,6.50
2023-05-17T20:24:57.932Z,6.40
2023-05-17T20:27:26.426Z,6.40
2023-05-17T20:29:54.060Z,6.40
2023-05-17T20:32:21.919Z,6.40
2023-05-17T20:34:49.646Z,6.50
2023-05-17T20:37:17.344Z,6.40
2023-05-17T20:39:45.154Z,6.40
2023-05-17T20:42:18.042Z,6.40
2023-05-17T20:44:46.016Z,6.40
2023-05-17T20:47:13.804Z,6.30
2023-05-17T20:49:41.426Z,6.30
2023-05-17T20:52:09.312Z,6.30
2023-05-17T20:54:37.382Z,6.40
2023-05-17T20:57:06.663Z,6.40
2023-05-17T20:59:34.549Z,6.40
2023-05-17T21:02:04.033Z,6.40
2023-05-17T21:04:31.891Z,6.40
2023-05-17T21:06:59.980Z,6.40
2023-05-17T21:09:27.801Z,6.40
2023-05-17T21:11:56.054Z,6.40
2023-05-17T21:14:23.892Z,6.50
2023-05-17T21:16:51.766Z,6.50
2023-05-17T21:19:19.789Z,6.40
2023-05-17T21:21:47.740Z,6.40
2023-05-17T21:24:15.661Z,6.40
2023-05-17T21:26:43.778Z,6.40
2023-05-17T21:29:11.482Z,6.30
2023-05-17T21:31:39.386Z,6.40
2023-05-17T21:34:07.279Z,6.40
2023-05-17T21:36:35.037Z,6.30
2023-05-17T21:39:02.842Z,6.30
2023-05-17T21:41:30.594Z,6.30
2023-05-17T21:43:58.564Z,6.40
2023-05-17T21:46:26.368Z,6.50
2023-05-17T21:48:54.175Z,6.50
2023-05-17T21:51:22.529Z,6.50
2023-05-17T21:53:51.117Z,6.40
2023-05-17T21:56:18.975Z,6.40
2023-05-17T21:58:46.868Z,6.40
2023-05-17T22:01:15.004Z,6.40
2023-05-17T22:03:43.306Z,6.40
2023-05-17T22:06:11.294Z,6.30
2023-05-17T22:08:42.483Z,6.30
2023-05-17T22:11:11.329Z,6.40
2023-05-17T22:13:39.286Z,6.30
2023-05-17T22:16:07.504Z,6.20
2023-05-17T22:18:35.793Z,6.20
2023-05-17T22:21:03.907Z,6.20
2023-05-17T22:23:31.916Z,6.20
2023-05-17T22:26:00.701Z,6.20
2023-05-17T22:28:28.903Z,6.20
2023-05-17T22:30:57.009Z,6.20
2023-05-17T22:33:25.033Z,6.30
2023-05-17T22:35:54.342Z,6.30
2023-05-17T22:38:23.492Z,6.30
2023-05-17T22:40:51.512Z,6.30
2023-05-17T22:43:21.633Z,6.30
2023-05-17T22:45:50.306Z,6.20
2023-05-17T22:48:20.199Z,6.20
2023-05-17T22:50:48.182Z,6.20
2023-05-17T22:53:18.491Z,6.20
2023-05-17T22:55:49.130Z,6.10
2023-05-17T22:58:17.365Z,6.30
2023-05-17T23:00:45.772Z,6.30
2023-05-17T23:03:13.818Z,6.20
2023-05-17T23:05:41.663Z,6.20
2023-05-17T23:08:10.101Z,6.30
2023-05-17T23:10:37.987Z,6.30
2023-05-17T23:13:05.914Z,6.30
2023-05-17T23:15:34.439Z,6.30
2023-05-17T23:18:02.385Z,6.30
2023-05-17T23:20:31.302Z,6.20
2023-05-17T23:22:59.713Z,6.30
2023-05-17T23:25:29.280Z,6.40
2023-05-17T23:27:58.281Z,6.30
2023-05-17T23:30:26.508Z,6.40
2023-05-17T23:32:55.459Z,6.40
2023-05-17T23:35:26.999Z,6.40
2023-05-17T23:37:55.008Z,6.30
2023-05-17T23:40:22.824Z,6.30
2023-05-17T23:42:50.621Z,6.30
2023-05-17T23:45:18.515Z,6.40
2023-05-17T23:47:47.771Z,6.40
2023-05-17T23:50:15.897Z,6.40
2023-05-17T23:52:44.059Z,6.50
2023-05-17T23:55:12.204Z,6.30
2023-05-17T23:57:41.486Z,6.40
